createdAt,value
2022-09-15T00:02:56.362Z,98219.38
2022-09-15T00:06:01.716Z,98216.47
2022-09-15T00:09:07.772Z,98209.19
2022-09-15T00:12:14.199Z,98201.97
2022-09-15T00:15:19.896Z,98203.31
2022-09-15T00:18:25.183Z,98195.00
2022-09-15T00:21:31.514Z,98191.50
2022-09-15T00:24:38.571Z,98191.50
2022-09-15T00:27:44.412Z,98183.75
2022-09-15T00:30:50.328Z,98184.25
2022-09-15T00:33:56.862Z,98166.28
2022-09-15T00:37:02.452Z,98174.31
2022-09-15T00:40:08.521Z,98163.59
2022-09-15T00:43:14.332Z,98172.34
2022-09-15T00:46:19.915Z,98169.41
2022-09-15T00:49:25.607Z,98174.47
2022-09-15T00:52:49.779Z,98169.34
2022-09-15T00:55:55.764Z,98178.97
2022-09-15T00:59:03.044Z,98172.28
2022-09-15T01:02:13.904Z,98171.47
2022-09-15T01:05:19.529Z,98163.97
2022-09-15T01:08:25.061Z,98163.69
2022-09-15T01:11:31.203Z,98160.19
2022-09-15T01:14:37.411Z,98158.59
2022-09-15T01:17:43.428Z,98160.75
2022-09-15T01:20:52.946Z,98144.16
2022-09-15T01:23:58.920Z,98154.88
2022-09-15T01:27:24.174Z,98145.47
2022-09-15T01:30:33.191Z,98141.19
2022-09-15T01:33:37.714Z,98141.72
2022-09-15T01:36:43.676Z,98141.16
2022-09-15T01:39:49.613Z,98138.78
2022-09-15T01:42:55.666Z,98138.22
2022-09-15T01:46:01.692Z,98135.81
2022-09-15T01:49:07.978Z,98133.41
2022-09-15T01:52:13.351Z,98132.88
2022-09-15T01:55:18.777Z,98124.28
2022-09-15T01:58:25.068Z,98124.03
2022-09-15T02:01:32.197Z,98115.47
2022-09-15T02:04:38.621Z,98113.34
2022-09-15T02:07:50.331Z,98115.25
2022-09-15T02:10:57.055Z,98103.47
2022-09-15T02:14:03.553Z,98109.34
2022-09-15T02:17:10.017Z,98102.38
2022-09-15T02:20:16.700Z,98099.44
2022-09-15T02:23:22.996Z,98093.56
2022-09-15T02:26:28.993Z,98087.41
2022-09-15T02:29:36.204Z,98089.00
2022-09-15T02:32:42.298Z,98085.22
2022-09-15T02:35:47.843Z,98090.59
2022-09-15T02:38:53.346Z,98093.53
2022-09-15T02:41:59.902Z,98100.78
2022-09-15T02:45:07.177Z,98089.53
2022-09-15T02:48:13.165Z,98076.97
2022-09-15T02:51:18.675Z,98091.16
2022-09-15T02:54:24.125Z,98079.66
2022-09-15T02:57:30.207Z,98078.06
2022-09-15T03:00:38.787Z,98064.16
2022-09-15T03:03:44.735Z,98062.78
2022-09-15T03:06:50.436Z,98060.66
2022-09-15T03:09:55.877Z,98065.75
2022-09-15T03:13:01.491Z,98065.47
2022-09-15T03:16:07.694Z,98062.28
2022-09-15T03:19:13.259Z,98061.75
2022-09-15T03:22:18.787Z,98059.63
2022-09-15T03:25:26.980Z,98054.81
2022-09-15T03:28:32.584Z,98054.25
2022-09-15T03:31:38.533Z,98051.03
2022-09-15T03:34:44.580Z,98056.16
2022-09-15T03:37:50.339Z,98057.72
2022-09-15T03:40:58.404Z,98047.81
2022-09-15T03:44:09.721Z,98053.47
2022-09-15T03:47:15.843Z,98047.00
2022-09-15T03:54:30.773Z,98050.72
2022-09-15T03:57:36.806Z,98049.41
2022-09-15T04:00:43.647Z,98057.44
2022-09-15T04:03:51.309Z,98052.06
2022-09-15T04:06:58.019Z,98053.38
2022-09-15T04:10:03.735Z,98047.50
2022-09-15T04:13:09.128Z,98042.94
2022-09-15T04:16:16.717Z,98042.66
2022-09-15T04:19:22.637Z,98041.31
2022-09-15T04:22:28.760Z,98050.16
2022-09-15T04:29:03.707Z,98038.91
2022-09-15T04:32:09.833Z,98036.22
2022-09-15T04:35:16.458Z,98037.03
2022-09-15T04:38:23.617Z,98031.13
2022-09-15T04:41:29.304Z,98032.19
2022-09-15T04:44:34.718Z,98029.03
2022-09-15T04:47:40.167Z,98030.13
2022-09-15T04:50:46.207Z,98028.78
2022-09-15T04:53:52.021Z,98024.78
2022-09-15T04:56:57.979Z,98030.13
2022-09-15T05:00:04.822Z,98032.28
2022-09-15T05:03:11.003Z,98029.09
2022-09-15T05:06:16.990Z,98034.94
2022-09-15T05:09:22.775Z,98025.84
2022-09-15T05:12:28.333Z,98033.59
2022-09-15T05:15:33.700Z,98026.88
2022-09-15T05:22:04.530Z,98031.09
2022-09-15T05:25:14.318Z,98034.00
2022-09-15T05:28:19.858Z,98038.00
2022-09-15T05:31:25.466Z,98032.59
2022-09-15T05:34:31.797Z,98032.06
2022-09-15T05:37:39.001Z,98028.78
2022-09-15T05:40:49.204Z,98023.94
2022-09-15T05:43:58.704Z,98023.34
2022-09-15T05:47:04.621Z,98023.88
2022-09-15T05:50:11.161Z,98022.81
2022-09-15T05:53:17.177Z,98018.75
2022-09-15T05:56:22.943Z,98016.25
2022-09-15T05:59:29.911Z,98013.53
2022-09-15T06:02:35.519Z,98012.09
2022-09-15T06:05:41.162Z,98012.56
2022-09-15T06:08:50.040Z,98014.16
2022-09-15T06:11:58.900Z,98012.84
2022-09-15T06:15:05.769Z,98018.50
2022-09-15T06:18:11.897Z,98022.50
2022-09-15T06:21:17.522Z,98010.22
2022-09-15T06:24:27.991Z,98009.97
2022-09-15T06:27:33.183Z,98017.81
2022-09-15T06:30:38.801Z,98018.03
2022-09-15T06:33:44.520Z,98014.34
2022-09-15T06:36:49.981Z,98021.59
2022-09-15T06:39:56.427Z,98009.19
2022-09-15T06:43:02.374Z,98023.66
2022-09-15T06:46:09.216Z,98016.84
2022-09-15T06:49:27.905Z,98011.47
2022-09-15T06:52:33.819Z,98015.66
2022-09-15T06:55:40.084Z,98019.41
2022-09-15T06:58:45.437Z,98019.06
2022-09-15T07:01:53.430Z,98024.19
2022-09-15T07:04:59.282Z,98018.78
2022-09-15T07:08:04.887Z,98027.78
2022-09-15T07:11:12.046Z,98027.13
2022-09-15T07:14:17.687Z,98021.88
2022-09-15T07:17:23.940Z,98020.81
2022-09-15T07:20:32.060Z,98024.06
2022-09-15T07:23:37.726Z,98024.72
2022-09-15T07:26:43.400Z,98011.03
2022-09-15T07:29:52.815Z,98018.88
2022-09-15T07:32:58.407Z,98024.19
2022-09-15T07:36:04.543Z,98024.38
2022-09-15T07:39:10.229Z,98026.75
2022-09-15T07:42:19.301Z,98019.69
2022-09-15T07:45:42.129Z,98016.25
2022-09-15T07:48:50.681Z,98028.50
2022-09-15T07:51:57.286Z,98025.69
2022-09-15T07:55:03.092Z,98022.78
2022-09-15T07:58:09.052Z,98024.63
2022-09-15T08:01:15.961Z,98026.56
2022-09-15T08:04:23.440Z,98027.25
2022-09-15T08:07:28.647Z,98027.91
2022-09-15T08:10:34.075Z,98025.97
2022-09-15T08:13:39.958Z,98026.47
2022-09-15T08:16:45.496Z,98024.53
2022-09-15T08:19:51.130Z,98026.47
2022-09-15T08:22:56.724Z,98020.72
2022-09-15T08:26:02.236Z,98020.63
2022-09-15T08:29:09.647Z,98025.25
2022-09-15T08:32:20.026Z,98021.66
2022-09-15T08:35:26.353Z,98025.38
2022-09-15T08:38:32.416Z,98023.16
2022-09-15T08:41:37.965Z,98025.91
2022-09-15T08:44:44.336Z,98022.06
2022-09-15T08:47:51.051Z,98023.97
2022-09-15T08:50:57.231Z,98012.81
2022-09-15T08:54:02.681Z,98010.50
2022-09-15T08:57:15.921Z,98016.16
2022-09-15T09:00:21.451Z,98018.81
2022-09-15T09:03:27.047Z,98015.47
2022-09-15T09:06:33.210Z,98017.47
2022-09-15T09:09:38.658Z,98011.91
2022-09-15T09:12:44.464Z,98012.03
2022-09-15T09:15:50.426Z,98019.19
2022-09-15T09:18:56.239Z,98029.66
2022-09-15T09:22:02.149Z,98019.97
2022-09-15T09:25:21.426Z,98023.56
2022-09-15T09:28:31.413Z,98031.59
2022-09-15T09:31:37.687Z,98024.44
2022-09-15T09:34:43.228Z,98041.81
2022-09-15T09:37:49.501Z,98024.44
2022-09-15T09:40:58.597Z,98027.84
2022-09-15T09:44:06.841Z,98030.94
2022-09-15T09:47:13.386Z,98029.03
2022-09-15T09:50:19.365Z,98031.56
2022-09-15T09:53:25.385Z,98026.78
2022-09-15T09:56:34.343Z,98035.00
2022-09-15T09:59:39.878Z,98016.72
2022-09-15T10:02:45.873Z,98020.28
2022-09-15T10:05:52.055Z,98022.25
2022-09-15T10:08:58.615Z,98033.44
2022-09-15T10:12:05.060Z,98027.22
2022-09-15T10:15:13.599Z,98033.50
2022-09-15T10:18:19.975Z,98038.50
2022-09-15T10:21:26.277Z,98020.69
2022-09-15T10:24:31.797Z,98027.13
2022-09-15T10:27:37.041Z,98028.44
2022-09-15T10:30:42.549Z,98024.50
2022-09-15T10:33:50.045Z,98041.38
2022-09-15T10:36:59.209Z,98036.19
2022-09-15T10:40:04.975Z,98033.06
2022-09-15T10:43:13.482Z,98025.75
2022-09-15T10:46:19.170Z,98026.69
2022-09-15T10:49:25.596Z,98025.38
2022-09-15T10:52:32.363Z,98031.94
2022-09-15T10:55:52.357Z,98031.63
2022-09-15T10:59:00.923Z,98029.94
2022-09-15T11:02:06.910Z,98034.91
2022-09-15T11:05:13.244Z,98037.56
2022-09-15T11:08:19.434Z,98034.75
2022-09-15T11:11:25.239Z,98039.31
2022-09-15T11:14:30.841Z,98030.97
2022-09-15T11:17:36.731Z,98038.63
2022-09-15T11:20:42.435Z,98048.56
2022-09-15T11:23:50.078Z,98047.97
2022-09-15T11:26:55.995Z,98046.72
2022-09-15T11:30:04.854Z,98048.56
2022-09-15T11:33:10.432Z,98045.16
2022-09-15T11:36:18.820Z,98032.38
2022-09-15T11:39:25.984Z,98050.25
2022-09-15T11:42:34.503Z,98050.56
2022-09-15T11:45:39.829Z,98052.69
2022-09-15T11:48:45.309Z,98050.19
2022-09-15T11:51:51.594Z,98042.75
2022-09-15T11:55:07.371Z,98054.19
2022-09-15T11:58:19.674Z,98057.75
2022-09-15T12:01:27.627Z,98057.66
2022-09-15T12:04:33.354Z,98064.13
2022-09-15T12:07:40.852Z,98048.53
2022-09-15T12:10:50.318Z,98053.69
2022-09-15T12:13:55.987Z,98056.69
2022-09-15T12:17:01.613Z,98069.84
2022-09-15T12:20:07.413Z,98052.91
2022-09-15T12:23:13.334Z,98054.09
2022-09-15T12:26:18.783Z,98060.44
2022-09-15T12:29:24.292Z,98054.25
2022-09-15T12:32:29.584Z,98057.09
2022-09-15T12:35:35.482Z,98052.84
2022-09-15T12:38:42.379Z,98055.25
2022-09-15T12:41:49.275Z,98052.06
2022-09-15T12:44:55.055Z,98054.84
2022-09-15T12:48:00.285Z,98055.22
2022-09-15T12:51:06.253Z,98057.66
2022-09-15T12:54:12.758Z,98047.63
2022-09-15T13:01:06.871Z,98040.78
2022-09-15T13:04:09.801Z,98051.66
2022-09-15T13:07:15.525Z,98049.50
2022-09-15T13:10:21.326Z,98051.41
2022-09-15T13:13:33.734Z,98047.06
2022-09-15T13:16:43.801Z,98050.47
2022-09-15T13:19:49.443Z,98051.78
2022-09-15T13:22:56.365Z,98056.09
2022-09-15T13:26:03.549Z,98055.78
2022-09-15T13:29:09.687Z,98052.47
2022-09-15T13:32:15.539Z,98058.75
2022-09-15T13:35:21.274Z,98063.13
2022-09-15T13:38:31.561Z,98061.53
2022-09-15T13:41:40.128Z,98056.34
2022-09-15T13:44:45.834Z,98060.03
2022-09-15T13:47:51.633Z,98058.13
2022-09-15T13:50:56.926Z,98059.44
2022-09-15T13:54:02.887Z,98056.88
2022-09-15T13:57:08.914Z,98063.38
2022-09-15T14:00:19.270Z,98068.59
2022-09-15T14:03:27.950Z,98058.00
2022-09-15T14:06:33.678Z,98060.00
2022-09-15T14:09:40.330Z,98057.69
2022-09-15T14:12:46.104Z,98066.75
2022-09-15T14:15:52.137Z,98052.06
2022-09-15T14:18:58.382Z,98064.44
2022-09-15T14:22:03.918Z,98058.84
2022-09-15T14:25:09.703Z,98061.72
2022-09-15T14:28:15.497Z,98058.00
2022-09-15T14:31:22.514Z,98055.28
2022-09-15T14:34:28.071Z,98058.09
2022-09-15T14:37:34.860Z,98055.63
2022-09-15T14:40:43.703Z,98051.91
2022-09-15T14:43:50.334Z,98059.25
2022-09-15T14:46:57.334Z,98054.31
2022-09-15T14:50:04.538Z,98054.69
2022-09-15T14:53:11.669Z,98052.94
2022-09-15T14:56:17.273Z,98060.03
2022-09-15T14:59:23.063Z,98055.19
2022-09-15T15:02:34.939Z,98062.91
2022-09-15T15:05:40.979Z,98058.66
2022-09-15T15:08:46.868Z,98057.44
2022-09-15T15:11:52.896Z,98058.00
2022-09-15T15:14:59.373Z,98059.75
2022-09-15T15:18:05.075Z,98057.91
2022-09-15T15:21:11.850Z,98053.31
2022-09-15T15:24:17.542Z,98052.81
2022-09-15T15:27:22.979Z,98055.00
2022-09-15T15:30:30.769Z,98049.31
2022-09-15T15:33:37.217Z,98056.06
2022-09-15T15:36:43.658Z,98048.31
2022-09-15T15:39:49.485Z,98046.63
2022-09-15T15:43:00.868Z,98047.13
2022-09-15T15:46:13.902Z,98040.16
2022-09-15T15:49:42.343Z,98039.16
2022-09-15T15:53:08.851Z,98043.19
2022-09-15T15:56:15.120Z,98050.81
2022-09-15T15:59:20.515Z,98044.56
2022-09-15T16:02:26.263Z,98037.44
2022-09-15T16:05:31.757Z,98036.47
2022-09-15T16:08:38.215Z,98039.00
2022-09-15T16:11:44.141Z,98035.91
2022-09-15T16:14:49.876Z,98033.41
2022-09-15T16:17:56.242Z,98032.53
2022-09-15T16:21:02.929Z,98028.66
2022-09-15T16:24:09.144Z,98036.59
2022-09-15T16:27:28.463Z,98031.84
2022-09-15T16:30:33.851Z,98035.13
2022-09-15T16:33:44.320Z,98041.59
2022-09-15T16:36:50.909Z,98038.41
2022-09-15T16:39:56.342Z,98029.38
2022-09-15T16:43:01.958Z,98037.78
2022-09-15T16:46:07.704Z,98036.25
2022-09-15T16:49:14.101Z,98038.19
2022-09-15T16:52:23.055Z,98026.38
2022-09-15T16:55:29.651Z,98027.03
2022-09-15T16:58:35.673Z,98027.34
2022-09-15T17:01:09.210Z,98016.38
2022-09-15T17:03:37.380Z,98022.31
2022-09-15T17:06:05.837Z,98017.50
2022-09-15T17:08:34.693Z,98023.13
2022-09-15T17:11:06.106Z,98013.72
2022-09-15T17:13:35.307Z,98019.41
2022-09-15T17:16:04.213Z,98020.25
2022-09-15T17:18:33.738Z,98017.84
2022-09-15T17:21:01.829Z,98017.03
2022-09-15T17:23:34.301Z,98015.69
2022-09-15T17:26:05.329Z,98015.69
2022-09-15T17:28:35.061Z,98015.97
2022-09-15T17:31:04.846Z,98010.88
2022-09-15T17:33:34.966Z,98016.53
2022-09-15T17:36:03.862Z,98009.00
2022-09-15T17:38:31.973Z,98011.69
2022-09-15T17:41:00.195Z,98018.66
2022-09-15T17:43:30.500Z,98017.88
2022-09-15T17:45:58.999Z,98013.56
2022-09-15T17:48:27.177Z,98010.88
2022-09-15T17:50:56.772Z,98004.69
2022-09-15T17:53:32.245Z,98003.09
2022-09-15T17:56:39.625Z,97999.59
2022-09-15T17:59:46.184Z,97998.81
2022-09-15T18:02:52.256Z,98002.38
2022-09-15T18:05:58.671Z,98005.91
2022-09-15T18:09:04.904Z,98000.28
2022-09-15T18:12:11.042Z,97994.69
2022-09-15T18:15:17.633Z,97998.75
2022-09-15T18:18:24.571Z,97995.81
2022-09-15T18:21:30.336Z,97995.03
2022-09-15T18:24:37.202Z,97994.25
2022-09-15T18:27:42.960Z,97991.63
2022-09-15T18:30:48.576Z,97983.03
2022-09-15T18:33:54.446Z,97987.06
2022-09-15T18:37:00.333Z,97980.63
2022-09-15T18:40:08.684Z,97987.59
2022-09-15T18:43:15.635Z,97990.81
2022-09-15T18:46:27.765Z,97984.63
2022-09-15T18:49:34.168Z,97985.44
2022-09-15T18:52:40.377Z,97991.09
2022-09-15T18:55:46.438Z,97986.03
2022-09-15T18:58:52.239Z,97983.66
2022-09-15T19:01:58.932Z,97985.81
2022-09-15T19:05:05.724Z,97978.03
2022-09-15T19:08:11.502Z,97978.03
2022-09-15T19:11:17.591Z,97975.06
2022-09-15T19:14:22.913Z,97974.78
2022-09-15T19:17:28.977Z,97972.31
2022-09-15T19:20:34.497Z,97987.88
2022-09-15T19:23:39.946Z,97972.56
2022-09-15T19:26:46.893Z,97969.88
2022-09-15T19:29:52.484Z,97972.31
2022-09-15T19:32:57.928Z,97970.50
2022-09-15T19:36:24.212Z,97972.09
2022-09-15T19:39:29.737Z,97958.41
2022-09-15T19:42:35.426Z,97969.97
2022-09-15T19:45:41.245Z,97961.09
2022-09-15T19:48:47.990Z,97964.34
2022-09-15T19:51:57.483Z,97963.81
2022-09-15T19:55:03.224Z,97950.66
2022-09-15T19:58:09.429Z,97959.81
2022-09-15T20:01:16.353Z,97949.88
2022-09-15T20:04:22.356Z,97949.06
2022-09-15T20:07:27.976Z,97954.75
2022-09-15T20:10:33.858Z,97945.88
2022-09-15T20:13:45.640Z,97944.28
2022-09-15T20:16:51.981Z,97946.38
2022-09-15T20:19:58.987Z,97940.19
2022-09-15T20:23:08.119Z,97944.28
2022-09-15T20:26:15.808Z,97932.19
2022-09-15T20:29:23.374Z,97950.47
2022-09-15T20:32:29.340Z,97941.09
2022-09-15T20:35:36.073Z,97945.66
2022-09-15T20:38:41.725Z,97942.97
2022-09-15T20:45:11.248Z,97944.13
2022-09-15T20:48:16.924Z,97942.00
2022-09-15T20:51:22.861Z,97938.25
2022-09-15T20:54:29.007Z,97940.19
2022-09-15T20:57:34.582Z,97938.34
2022-09-15T21:00:40.889Z,97933.53
2022-09-15T21:03:51.046Z,97933.84
2022-09-15T21:06:57.948Z,97930.94
2022-09-15T21:10:03.779Z,97934.97
2022-09-15T21:13:09.368Z,97929.34
2022-09-15T21:16:15.578Z,97930.72
2022-09-15T21:19:21.170Z,97918.38
2022-09-15T21:22:26.863Z,97919.19
2022-09-15T21:25:32.451Z,97921.88
2022-09-15T21:28:51.868Z,97920.00
2022-09-15T21:31:58.185Z,97918.63
2022-09-15T21:35:05.807Z,97925.63
2022-09-15T21:38:12.325Z,97915.13
2022-09-15T21:41:20.877Z,97915.63
2022-09-15T21:44:34.300Z,97913.72
2022-09-15T21:47:41.248Z,97911.84
2022-09-15T21:50:47.521Z,97906.19
2022-09-15T21:53:54.051Z,97899.75
2022-09-15T21:57:00.750Z,97897.88
2022-09-15T22:00:08.797Z,97905.66
2022-09-15T22:03:15.412Z,97903.72
2022-09-15T22:06:29.157Z,97906.16
2022-09-15T22:09:34.630Z,97900.78
2022-09-15T22:12:40.045Z,97898.38
2022-09-15T22:15:45.785Z,97896.00
2022-09-15T22:18:51.925Z,97897.06
2022-09-15T22:21:57.559Z,97894.38
2022-09-15T22:25:03.198Z,97891.69
2022-09-15T22:28:08.668Z,97895.47
2022-09-15T22:31:14.141Z,97897.06
2022-09-15T22:34:20.348Z,97889.81
2022-09-15T22:37:27.907Z,97889.00
2022-09-15T22:40:33.950Z,97889.28
2022-09-15T22:43:40.222Z,97892.25
2022-09-15T22:46:46.052Z,97882.59
2022-09-15T22:49:52.389Z,97885.28
2022-09-15T22:52:58.257Z,97875.88
2022-09-15T22:56:05.040Z,97880.72
2022-09-15T22:59:10.945Z,97878.31
2022-09-15T23:02:16.805Z,97880.47
2022-09-15T23:05:23.161Z,97870.53
2022-09-15T23:08:28.846Z,97873.47
2022-09-15T23:11:34.388Z,97876.97
2022-09-15T23:14:39.741Z,97873.19
2022-09-15T23:17:46.208Z,97868.91
2022-09-15T23:20:52.569Z,97875.94
2022-09-15T23:23:59.333Z,97875.16
2022-09-15T23:27:05.555Z,97871.94
2022-09-15T23:30:11.829Z,97875.66
2022-09-15T23:33:18.580Z,97880.50
2022-09-15T23:36:24.635Z,97870.84
2022-09-15T23:39:30.846Z,97872.50
2022-09-15T23:42:36.159Z,97871.69
2022-09-15T23:45:41.485Z,97867.19
2022-09-15T23:48:47.251Z,97876.03
2022-09-15T23:51:53.542Z,97872.53
2022-09-15T23:54:59.308Z,97867.47
2022-09-15T23:58:05.138Z,97865.84
